createdAt,value
2023-01-27T00:00:20.099Z,2.79
2023-01-27T00:02:54.872Z,2.80
2023-01-27T00:05:30.667Z,2.79
2023-01-27T00:08:05.458Z,2.85
2023-01-27T00:10:40.139Z,2.88
2023-01-27T00:13:27.447Z,2.98
2023-01-27T00:16:01.704Z,2.89
2023-01-27T00:18:36.797Z,2.87
2023-01-27T00:21:29.799Z,2.85
2023-01-27T00:24:22.122Z,2.67
2023-01-27T00:26:56.514Z,2.74
2023-01-27T00:29:32.024Z,2.67
2023-01-27T00:32:25.155Z,2.70
2023-01-27T00:34:59.666Z,2.64
2023-01-27T00:37:35.346Z,2.63
2023-01-27T00:40:15.106Z,2.66
2023-01-27T00:42:49.626Z,2.77
2023-01-27T00:45:41.587Z,2.54
2023-01-27T00:48:17.121Z,2.64
2023-01-27T00:50:52.581Z,2.55
2023-01-27T00:53:28.252Z,2.58
2023-01-27T00:56:02.924Z,2.43
2023-01-27T00:58:37.517Z,2.51
2023-01-27T01:01:14.196Z,2.50
2023-01-27T01:03:49.119Z,2.50
2023-01-27T01:06:23.949Z,2.56
2023-01-27T01:08:59.956Z,2.44
2023-01-27T01:11:34.542Z,2.46
2023-01-27T01:14:08.918Z,2.43
2023-01-27T01:16:43.514Z,2.23
2023-01-27T01:19:17.744Z,2.21
2023-01-27T01:21:52.672Z,2.21
2023-01-27T01:24:28.457Z,2.41
2023-01-27T01:27:03.047Z,2.32
2023-01-27T01:29:38.555Z,2.38
2023-01-27T01:32:13.586Z,2.45
2023-01-27T01:34:47.931Z,2.16
2023-01-27T01:37:23.703Z,2.14
2023-01-27T01:39:59.468Z,2.06
2023-01-27T01:42:57.104Z,2.10
2023-01-27T01:45:56.681Z,2.27
2023-01-27T01:48:36.046Z,2.06
2023-01-27T01:51:14.732Z,2.10
2023-01-27T01:53:53.552Z,2.04
2023-01-27T01:56:33.539Z,2.03
2023-01-27T01:59:13.662Z,1.77
2023-01-27T02:01:48.863Z,1.98
2023-01-27T02:04:29.823Z,2.17
2023-01-27T02:07:09.014Z,2.00
2023-01-27T02:09:44.039Z,1.91
2023-01-27T02:12:19.991Z,1.94
2023-01-27T02:14:55.154Z,2.07
2023-01-27T02:17:30.174Z,2.06
2023-01-27T02:20:12.003Z,2.19
2023-01-27T02:22:53.211Z,1.98
2023-01-27T02:25:35.787Z,1.98
2023-01-27T02:28:11.445Z,1.91
2023-01-27T02:30:46.686Z,2.00
2023-01-27T02:33:21.329Z,1.89
2023-01-27T02:36:03.401Z,1.97
2023-01-27T02:38:42.569Z,2.05
2023-01-27T02:41:23.812Z,2.08
2023-01-27T02:44:00.172Z,1.95
2023-01-27T02:46:35.164Z,1.96
2023-01-27T02:49:09.639Z,2.05
2023-01-27T02:51:44.251Z,2.11
2023-01-27T02:54:18.670Z,2.14
2023-01-27T02:56:53.186Z,2.13
2023-01-27T02:59:30.622Z,2.17
2023-01-27T03:02:05.439Z,2.24
2023-01-27T03:04:39.999Z,2.23
2023-01-27T03:07:14.537Z,2.23
2023-01-27T03:09:48.870Z,2.12
2023-01-27T03:12:24.306Z,2.12
2023-01-27T03:15:17.528Z,2.17
2023-01-27T03:18:09.965Z,2.10
2023-01-27T03:20:47.216Z,2.12
2023-01-27T03:23:22.085Z,2.22
2023-01-27T03:25:56.629Z,2.13
2023-01-27T03:28:31.201Z,2.12
2023-01-27T03:31:09.485Z,2.24
2023-01-27T03:33:45.951Z,2.18
2023-01-27T03:36:39.343Z,2.09
2023-01-27T03:39:31.557Z,2.04
2023-01-27T03:42:23.488Z,1.90
2023-01-27T03:45:15.996Z,1.86
2023-01-27T03:47:53.056Z,1.82
2023-01-27T03:50:37.396Z,1.84
2023-01-27T03:53:12.697Z,1.76
2023-01-27T03:55:48.037Z,1.88
2023-01-27T03:58:25.700Z,1.62
2023-01-27T04:01:01.793Z,1.50
2023-01-27T04:03:55.505Z,1.58
2023-01-27T04:06:48.508Z,1.74
2023-01-27T04:09:24.812Z,1.66
2023-01-27T04:12:00.949Z,1.75
2023-01-27T04:14:38.248Z,1.66
2023-01-27T04:17:14.063Z,1.52
2023-01-27T04:19:50.541Z,1.50
2023-01-27T04:22:25.036Z,1.41
2023-01-27T04:24:59.618Z,1.44
2023-01-27T04:27:33.818Z,1.41
2023-01-27T04:30:10.544Z,1.35
2023-01-27T04:32:45.082Z,1.47
2023-01-27T04:35:23.339Z,1.55
2023-01-27T04:37:59.478Z,1.54
2023-01-27T04:40:34.011Z,1.61
2023-01-27T04:43:08.259Z,3.92
2023-01-27T04:45:43.096Z,6.33
2023-01-27T04:48:17.638Z,4.31
2023-01-27T04:50:53.700Z,3.29
2023-01-27T04:53:27.989Z,2.99
2023-01-27T04:56:04.521Z,2.81
2023-01-27T04:58:38.661Z,2.36
2023-01-27T05:01:13.340Z,2.31
2023-01-27T05:03:47.624Z,2.30
2023-01-27T05:06:24.376Z,2.15
2023-01-27T05:08:58.649Z,2.02
2023-01-27T05:11:33.177Z,1.93
2023-01-27T05:14:07.342Z,1.89
2023-01-27T05:16:42.047Z,1.77
2023-01-27T05:19:16.744Z,1.59
2023-01-27T05:21:52.685Z,1.74
2023-01-27T05:24:27.054Z,3.36
2023-01-27T05:27:01.642Z,6.16
2023-01-27T05:29:35.973Z,4.70
2023-01-27T05:32:10.429Z,6.73
2023-01-27T05:34:44.751Z,4.42
2023-01-27T05:37:20.853Z,2.95
2023-01-27T05:40:00.203Z,3.03
2023-01-27T05:42:35.080Z,5.58
2023-01-27T05:45:11.086Z,4.06
2023-01-27T05:47:49.414Z,3.22
2023-01-27T05:50:26.627Z,2.81
2023-01-27T05:53:02.507Z,2.40
2023-01-27T05:55:36.747Z,2.01
2023-01-27T05:58:11.478Z,1.89
2023-01-27T06:00:46.176Z,1.95
2023-01-27T06:03:21.098Z,1.81
2023-01-27T06:05:56.618Z,1.77
2023-01-27T06:08:32.826Z,1.57
2023-01-27T06:11:07.897Z,1.73
2023-01-27T06:13:42.962Z,1.61
2023-01-27T06:16:19.395Z,1.55
2023-01-27T06:18:53.928Z,1.47
2023-01-27T06:21:28.257Z,1.51
2023-01-27T06:24:04.532Z,1.42
2023-01-27T06:26:39.119Z,1.41
2023-01-27T06:29:13.761Z,1.24
2023-01-27T06:31:48.174Z,1.45
2023-01-27T06:34:23.232Z,1.38
2023-01-27T06:36:57.428Z,1.27
2023-01-27T06:39:33.502Z,1.43
2023-01-27T06:42:09.836Z,1.24
2023-01-27T06:44:44.465Z,1.21
2023-01-27T06:47:18.757Z,1.26
2023-01-27T06:49:53.356Z,1.37
2023-01-27T06:52:27.749Z,1.21
2023-01-27T06:55:03.941Z,1.32
2023-01-27T06:57:38.527Z,1.36
2023-01-27T07:03:05.870Z,1.94
2023-01-27T07:05:42.434Z,1.94
2023-01-27T07:08:16.752Z,1.45
2023-01-27T07:10:51.412Z,1.47
2023-01-27T07:13:25.748Z,1.58
2023-01-27T07:16:00.502Z,1.46
2023-01-27T07:18:36.125Z,1.63
2023-01-27T07:21:11.147Z,1.53
2023-01-27T07:23:45.480Z,1.49
2023-01-27T07:26:25.071Z,1.50
2023-01-27T07:28:59.751Z,1.66
2023-01-27T07:31:35.339Z,1.51
2023-01-27T07:34:11.047Z,1.52
2023-01-27T07:36:45.593Z,1.55
2023-01-27T07:39:19.928Z,1.38
2023-01-27T07:41:55.002Z,1.51
2023-01-27T07:44:29.315Z,1.64
2023-01-27T07:47:03.847Z,1.77
2023-01-27T07:49:39.554Z,1.64
2023-01-27T07:52:14.100Z,1.80
2023-01-27T07:54:48.373Z,1.70
2023-01-27T07:57:23.024Z,1.74
2023-01-27T07:59:57.506Z,1.71
2023-01-27T08:02:32.408Z,1.78
2023-01-27T08:05:09.186Z,1.88
2023-01-27T08:07:43.459Z,1.79
2023-01-27T08:10:19.070Z,1.74
2023-01-27T08:12:53.420Z,1.86
2023-01-27T08:15:27.955Z,1.89
2023-01-27T08:18:02.512Z,1.89
2023-01-27T08:20:38.494Z,1.82
2023-01-27T08:23:12.706Z,1.79
2023-01-27T08:25:51.040Z,1.76
2023-01-27T08:28:26.361Z,1.77
2023-01-27T08:31:06.108Z,1.60
2023-01-27T08:33:41.335Z,1.66
2023-01-27T08:36:18.748Z,1.70
2023-01-27T08:38:53.261Z,1.75
2023-01-27T08:41:28.794Z,1.66
2023-01-27T08:44:03.281Z,1.64
2023-01-27T08:46:37.844Z,1.83
2023-01-27T08:49:13.859Z,1.69
2023-01-27T08:51:49.813Z,1.65
2023-01-27T08:54:24.036Z,1.64
2023-01-27T08:56:58.798Z,1.67
2023-01-27T08:59:33.151Z,6.92
2023-01-27T09:02:08.111Z,7.90
2023-01-27T09:04:44.437Z,4.42
2023-01-27T09:07:20.593Z,3.38
2023-01-27T09:10:07.767Z,3.03
2023-01-27T09:12:48.138Z,2.67
2023-01-27T09:15:22.689Z,2.63
2023-01-27T09:17:57.432Z,2.31
2023-01-27T09:20:32.129Z,2.30
2023-01-27T09:23:08.087Z,2.39
2023-01-27T09:25:42.303Z,2.58
2023-01-27T09:28:18.116Z,6.97
2023-01-27T09:30:52.624Z,4.02
2023-01-27T09:33:27.837Z,3.50
2023-01-27T09:36:06.458Z,3.15
2023-01-27T09:38:48.645Z,3.11
2023-01-27T09:41:47.879Z,2.91
2023-01-27T09:44:52.225Z,2.96
2023-01-27T09:47:43.322Z,2.80
2023-01-27T09:50:32.090Z,2.99
2023-01-27T09:53:57.348Z,2.94
2023-01-27T09:56:44.869Z,2.78
2023-01-27T09:59:42.353Z,2.76
2023-01-27T10:02:35.746Z,2.83
2023-01-27T10:05:41.046Z,3.02
2023-01-27T10:08:36.208Z,2.79
2023-01-27T10:11:20.759Z,6.87
2023-01-27T10:14:08.493Z,5.85
2023-01-27T10:17:04.340Z,4.39
2023-01-27T10:19:55.127Z,4.03
2023-01-27T10:22:42.375Z,3.77
2023-01-27T10:25:26.721Z,3.35
2023-01-27T10:28:10.404Z,3.51
2023-01-27T10:30:52.444Z,3.19
2023-01-27T10:33:46.115Z,2.85
2023-01-27T10:36:28.075Z,2.91
2023-01-27T10:39:17.629Z,3.11
2023-01-27T10:41:58.582Z,2.91
2023-01-27T10:44:54.804Z,2.70
2023-01-27T10:47:41.883Z,2.56
2023-01-27T10:50:20.343Z,2.62
2023-01-27T10:53:00.639Z,2.52
2023-01-27T10:55:42.453Z,2.53
2023-01-27T10:58:25.330Z,2.23
2023-01-27T11:01:20.365Z,2.35
2023-01-27T11:04:00.286Z,2.24
2023-01-27T11:06:38.890Z,2.24
2023-01-27T11:09:25.207Z,2.02
2023-01-27T11:12:03.647Z,2.11
2023-01-27T11:14:46.387Z,2.16
2023-01-27T11:17:29.974Z,2.23
2023-01-27T11:20:13.929Z,2.25
2023-01-27T11:22:54.743Z,2.19
2023-01-27T11:25:35.721Z,2.29
2023-01-27T11:28:21.548Z,2.31
2023-01-27T11:31:06.130Z,2.25
2023-01-27T11:33:58.232Z,2.36
2023-01-27T11:36:32.734Z,2.19
2023-01-27T11:39:07.731Z,2.09
2023-01-27T11:41:47.666Z,2.18
2023-01-27T11:44:25.655Z,2.27
2023-01-27T11:47:00.475Z,2.19
2023-01-27T11:49:43.811Z,2.16
2023-01-27T11:52:21.452Z,2.26
2023-01-27T11:55:05.333Z,2.30
2023-01-27T11:57:44.699Z,2.51
2023-01-27T12:00:25.445Z,2.52
2023-01-27T12:03:06.900Z,2.41
2023-01-27T12:05:46.991Z,2.58
2023-01-27T12:08:40.009Z,2.30
2023-01-27T12:11:22.907Z,2.45
2023-01-27T12:13:59.710Z,2.24
2023-01-27T12:16:45.767Z,2.07
2023-01-27T12:19:26.626Z,2.03
2023-01-27T12:22:07.948Z,2.30
2023-01-27T12:24:49.509Z,2.24
2023-01-27T12:27:27.274Z,2.01
2023-01-27T12:30:05.492Z,2.10
2023-01-27T12:32:43.485Z,2.16
2023-01-27T12:35:24.530Z,2.27
2023-01-27T12:38:04.788Z,2.42
2023-01-27T12:40:43.771Z,2.18
2023-01-27T12:43:20.078Z,2.19
2023-01-27T12:46:22.987Z,2.42
2023-01-27T12:49:03.859Z,2.46
2023-01-27T12:51:41.931Z,2.28
2023-01-27T12:54:21.955Z,2.50
2023-01-27T12:57:02.777Z,2.42
2023-01-27T12:59:43.292Z,2.50
2023-01-27T13:02:21.039Z,2.31
2023-01-27T13:04:58.875Z,2.30
2023-01-27T13:07:38.573Z,2.40
2023-01-27T13:10:22.889Z,5.82
2023-01-27T13:13:02.005Z,2.96
2023-01-27T13:15:36.371Z,3.80
2023-01-27T13:18:21.882Z,3.13
2023-01-27T13:21:11.373Z,3.01
2023-01-27T13:23:49.167Z,2.81
2023-01-27T13:26:30.167Z,2.71
2023-01-27T13:29:14.526Z,2.62
2023-01-27T13:31:55.301Z,2.36
2023-01-27T13:34:39.874Z,2.35
2023-01-27T13:37:18.874Z,2.45
2023-01-27T13:40:00.986Z,2.18
2023-01-27T13:42:41.180Z,2.21
2023-01-27T13:45:19.070Z,2.35
2023-01-27T13:47:58.256Z,2.45
2023-01-27T13:50:37.443Z,2.30
2023-01-27T13:53:14.045Z,2.36
2023-01-27T13:56:07.245Z,2.39
2023-01-27T13:58:55.741Z,2.42
2023-01-27T14:01:43.236Z,2.31
2023-01-27T14:04:34.818Z,2.63
2023-01-27T14:07:22.114Z,2.22
2023-01-27T14:10:13.791Z,2.34
2023-01-27T14:12:58.136Z,2.19
2023-01-27T14:15:41.717Z,2.33
2023-01-27T14:18:20.420Z,2.33
2023-01-27T14:21:12.230Z,2.31
2023-01-27T14:24:02.652Z,2.50
2023-01-27T14:26:51.829Z,2.56
2023-01-27T14:29:34.943Z,7.32
2023-01-27T14:32:22.591Z,5.05
2023-01-27T14:35:19.900Z,3.93
2023-01-27T14:38:06.458Z,3.40
2023-01-27T14:40:50.580Z,3.11
2023-01-27T14:43:34.668Z,2.97
2023-01-27T14:46:19.057Z,2.68
2023-01-27T14:49:07.554Z,2.51
2023-01-27T14:51:46.566Z,6.45
2023-01-27T14:54:40.100Z,4.22
2023-01-27T14:57:26.372Z,3.66
2023-01-27T15:03:37.968Z,3.03
2023-01-27T15:06:18.648Z,3.03
2023-01-27T15:09:02.918Z,2.50
2023-01-27T15:12:13.214Z,2.24
2023-01-27T15:15:07.640Z,2.15
2023-01-27T15:18:00.351Z,2.04
2023-01-27T15:21:03.446Z,2.08
2023-01-27T15:24:06.464Z,2.05
2023-01-27T15:26:42.243Z,2.02
2023-01-27T15:29:20.082Z,2.13
2023-01-27T15:32:27.287Z,2.08
2023-01-27T15:35:34.726Z,2.13
2023-01-27T15:38:34.027Z,2.23
2023-01-27T15:41:16.030Z,2.16
2023-01-27T15:44:06.060Z,1.98
2023-01-27T15:46:45.775Z,1.92
2023-01-27T15:49:24.439Z,1.77
2023-01-27T15:52:12.013Z,2.06
2023-01-27T15:54:51.283Z,1.82
2023-01-27T15:57:30.051Z,1.73
2023-01-27T16:00:08.102Z,1.65
2023-01-27T16:02:48.101Z,1.77
2023-01-27T16:05:26.468Z,1.70
2023-01-27T16:08:03.536Z,1.74
2023-01-27T16:10:40.695Z,1.69
2023-01-27T16:13:26.280Z,1.81
2023-01-27T16:16:23.301Z,1.70
2023-01-27T16:19:05.056Z,1.58
2023-01-27T16:21:47.736Z,1.56
2023-01-27T16:24:29.254Z,1.50
2023-01-27T16:27:23.569Z,1.47
2023-01-27T16:30:00.722Z,1.45
2023-01-27T16:32:41.160Z,1.51
2023-01-27T16:35:19.315Z,1.30
2023-01-27T16:38:18.017Z,1.52
2023-01-27T16:40:57.293Z,1.48
2023-01-27T16:43:42.928Z,1.50
2023-01-27T16:46:28.509Z,1.58
2023-01-27T16:49:05.653Z,1.48
2023-01-27T16:51:40.306Z,1.53
2023-01-27T16:54:21.569Z,1.66
2023-01-27T16:56:56.321Z,1.63
2023-01-27T16:59:37.335Z,1.64
2023-01-27T17:02:19.995Z,1.63
2023-01-27T17:04:58.816Z,1.54
2023-01-27T17:07:34.783Z,1.52
2023-01-27T17:10:29.080Z,1.55
2023-01-27T17:13:27.622Z,1.63
2023-01-27T17:16:08.615Z,1.64
2023-01-27T17:18:52.363Z,1.59
2023-01-27T17:21:32.564Z,2.63
2023-01-27T17:24:17.273Z,4.28
2023-01-27T17:26:59.798Z,3.11
2023-01-27T17:29:36.842Z,2.44
2023-01-27T17:32:21.847Z,2.00
2023-01-27T17:34:58.727Z,1.80
2023-01-27T17:37:34.095Z,1.75
2023-01-27T17:40:15.977Z,1.59
2023-01-27T17:42:52.060Z,1.50
2023-01-27T17:45:30.023Z,1.46
2023-01-27T17:48:06.366Z,1.43
2023-01-27T17:50:41.369Z,1.28
2023-01-27T17:53:25.237Z,1.40
2023-01-27T17:55:59.716Z,1.43
2023-01-27T17:58:34.745Z,1.44
2023-01-27T18:01:10.117Z,1.22
2023-01-27T18:03:47.412Z,1.30
2023-01-27T18:06:24.410Z,1.38
2023-01-27T18:09:02.762Z,1.41
2023-01-27T18:11:39.357Z,1.38
2023-01-27T18:14:19.661Z,1.40
2023-01-27T18:17:01.821Z,1.77
2023-01-27T18:19:37.978Z,5.02
2023-01-27T18:22:15.179Z,7.80
2023-01-27T18:24:53.224Z,9.00
2023-01-27T18:27:30.446Z,5.48
2023-01-27T18:30:13.449Z,4.26
2023-01-27T18:32:52.509Z,3.34
2023-01-27T18:35:30.399Z,2.66
2023-01-27T18:38:20.754Z,2.33
2023-01-27T18:40:55.850Z,2.14
2023-01-27T18:43:30.474Z,2.08
2023-01-27T18:46:11.507Z,2.13
2023-01-27T18:48:46.876Z,1.82
2023-01-27T18:51:23.334Z,1.70
2023-01-27T18:53:57.815Z,1.79
2023-01-27T18:56:32.761Z,1.69
2023-01-27T18:59:09.229Z,1.76
2023-01-27T19:01:44.745Z,1.61
2023-01-27T19:04:19.113Z,1.64
2023-01-27T19:06:55.385Z,4.40
2023-01-27T19:09:29.784Z,5.52
2023-01-27T19:12:04.511Z,3.35
2023-01-27T19:14:39.114Z,2.79
2023-01-27T19:17:19.654Z,2.70
2023-01-27T19:19:55.944Z,2.42
2023-01-27T19:22:32.114Z,2.22
2023-01-27T19:25:07.740Z,1.98
2023-01-27T19:27:45.440Z,1.75
2023-01-27T19:30:32.688Z,1.87
2023-01-27T19:33:18.074Z,1.79
2023-01-27T19:35:55.685Z,1.92
2023-01-27T19:38:32.073Z,1.79
2023-01-27T19:41:09.786Z,1.84
2023-01-27T19:43:47.333Z,1.74
2023-01-27T19:46:23.817Z,1.77
2023-01-27T19:48:58.774Z,1.47
2023-01-27T19:51:34.390Z,1.59
2023-01-27T19:54:11.234Z,1.62
2023-01-27T19:56:46.224Z,1.64
2023-01-27T19:59:21.197Z,1.61
2023-01-27T20:01:57.675Z,1.47
2023-01-27T20:04:32.564Z,1.57
2023-01-27T20:07:11.408Z,1.58
2023-01-27T20:09:47.740Z,1.72
2023-01-27T20:12:22.058Z,1.67
2023-01-27T20:14:57.116Z,1.61
2023-01-27T20:17:31.655Z,1.91
2023-01-27T20:20:07.817Z,1.76
2023-01-27T20:22:42.835Z,1.89
2023-01-27T20:25:21.177Z,1.59
2023-01-27T20:27:57.520Z,1.80
2023-01-27T20:30:34.887Z,1.54
2023-01-27T20:33:09.500Z,1.51
2023-01-27T20:35:44.078Z,1.46
2023-01-27T20:38:18.587Z,1.55
2023-01-27T20:40:54.568Z,1.42
2023-01-27T20:43:35.314Z,1.37
2023-01-27T20:46:13.520Z,1.55
2023-01-27T20:48:48.617Z,1.55
2023-01-27T20:51:23.480Z,1.57
2023-01-27T20:54:00.231Z,1.44
2023-01-27T20:56:36.499Z,1.62
2023-01-27T20:59:12.254Z,1.39
2023-01-27T21:01:46.921Z,1.37
2023-01-27T21:04:21.436Z,1.42
2023-01-27T21:06:56.074Z,1.48
2023-01-27T21:09:32.082Z,1.32
2023-01-27T21:12:08.272Z,1.41
2023-01-27T21:14:42.845Z,1.33
2023-01-27T21:17:17.515Z,1.42
2023-01-27T21:19:52.034Z,1.33
2023-01-27T21:22:27.190Z,1.29
2023-01-27T21:25:01.510Z,1.26
2023-01-27T21:27:37.714Z,1.15
2023-01-27T21:30:13.887Z,1.28
2023-01-27T21:32:49.247Z,1.32
2023-01-27T21:35:23.556Z,1.07
2023-01-27T21:38:00.140Z,1.27
2023-01-27T21:40:35.444Z,1.24
2023-01-27T21:43:29.909Z,1.19
2023-01-27T21:46:04.292Z,1.27
2023-01-27T21:48:39.060Z,1.27
2023-01-27T21:51:14.273Z,1.33
2023-01-27T21:53:49.011Z,1.45
2023-01-27T21:56:23.891Z,1.28
2023-01-27T21:59:01.213Z,1.20
2023-01-27T22:01:36.063Z,1.19
2023-01-27T22:04:11.237Z,1.29
2023-01-27T22:06:45.511Z,1.17
2023-01-27T22:09:20.044Z,1.26
2023-01-27T22:11:54.425Z,1.21
2023-01-27T22:14:31.278Z,1.23
2023-01-27T22:17:05.913Z,1.20
2023-01-27T22:19:40.621Z,1.24
2023-01-27T22:22:15.179Z,1.21
2023-01-27T22:24:49.713Z,1.27
2023-01-27T22:27:24.041Z,1.27
2023-01-27T22:30:00.170Z,1.35
2023-01-27T22:32:34.564Z,1.39
2023-01-27T22:35:09.936Z,1.39
2023-01-27T22:37:44.448Z,1.39
2023-01-27T22:40:19.270Z,1.42
2023-01-27T22:42:54.481Z,1.42
2023-01-27T22:45:30.380Z,1.27
2023-01-27T22:48:04.889Z,1.26
2023-01-27T22:50:40.675Z,1.33
2023-01-27T22:53:15.079Z,1.28
2023-01-27T22:55:58.031Z,1.33
2023-01-27T22:58:32.561Z,1.41
2023-01-27T23:02:57.727Z,1.60
2023-01-27T23:05:32.685Z,1.60
2023-01-27T23:08:06.948Z,1.24
2023-01-27T23:10:41.648Z,1.36
2023-01-27T23:13:16.294Z,1.34
2023-01-27T23:15:50.861Z,1.42
2023-01-27T23:18:26.798Z,1.29
2023-01-27T23:21:04.485Z,1.28
2023-01-27T23:23:38.819Z,1.38
2023-01-27T23:26:14.695Z,1.30
2023-01-27T23:28:49.026Z,1.33
2023-01-27T23:31:23.686Z,1.41
2023-01-27T23:33:59.579Z,1.34
2023-01-27T23:36:34.126Z,1.24
2023-01-27T23:39:08.412Z,1.27
2023-01-27T23:41:42.999Z,1.23
2023-01-27T23:44:17.424Z,1.30
2023-01-27T23:46:51.970Z,1.29
2023-01-27T23:49:27.925Z,1.25
2023-01-27T23:52:02.408Z,1.24
2023-01-27T23:54:37.070Z,1.18
2023-01-27T23:57:11.682Z,6.57
2023-01-27T23:59:45.983Z,3.45
